Allentown, New York
Current Conditions -  °F | °C
As of 4:56 AM on Sunday 26 Oct 2014 (Local Time) from KELZ Reporting Station
Clear Clear  
Wind Chill: 37°   Ceiling: Unl
Heat Index: 44°   Visibility: 10mi
Dew Point: 34°   Wind: 15mph
Humidity: 68%   Direction: 280°W
Pressure: 29.67"   Gusts: 23mph
Location:  42.08°N, 78.06°W
Report Text: KELZ 260856Z AUTO 28013G20KT 10SM CLR 07/01 A2967 RMK AO2 SLP050 T00670011 50000
Loading
Personal Weather Stations






























Interactive Weather Map
Tropical Storm Tracking
New forecast layout! Learn more

10-Day Weather Forecast

Advertisements
Track Severe Weather on mobile